Time;durP1;ratioP1;P1;durP2;ratioP2;P2;SDS_P1;SDS_P2;PMS_P1;PMS_P2;Temp;Humidity;BMP_temperature;BMP_pressure;BME280_temperature;BME280_humidity;BME280_pressure;Samples;Min_cycle;Max_cycle;Signal;HPM_P1;HPM_P2
2022/08/15 00:00:40;;;;;;;2.13;1.97;;;;;;;;;;5092385;28;20436;-72
2022/08/15 00:03:18;;;;;;;3.33;2.40;;;;;;;;;;5091939;28;20451;-74
2022/08/15 00:05:46;;;;;;;2.30;2.10;;;;;;;;;;5091697;28;20432;-73
2022/08/15 00:08:13;;;;;;;2.40;2.20;;;;;;;;;;5091298;28;20437;-73
2022/08/15 00:10:44;;;;;;;2.47;2.20;;;;;;;;;;5091954;28;20527;-73
2022/08/15 00:13:12;;;;;;;3.63;2.27;;;;;;;;;;5092130;28;20817;-73
2022/08/15 00:15:40;;;;;;;2.87;2.57;;;;;;;;;;5093626;28;20929;-72
2022/08/15 00:18:07;;;;;;;3.00;2.70;;;;;;;;;;5094271;28;20441;-72
2022/08/15 00:20:38;;;;;;;2.80;2.40;;;;;;;;;;5091874;28;20463;-73
2022/08/15 00:23:08;;;;;;;2.87;2.67;;;;;;;;;;5091009;28;20527;-72
2022/08/15 00:25:39;;;;;;;2.53;2.33;;;;;;;;;;5091215;28;20480;-73
2022/08/15 00:28:07;;;;;;;3.17;2.37;;;;;;;;;;5090997;28;20433;-73
2022/08/15 00:30:34;;;;;;;3.37;3.07;;;;;;;;;;5091510;28;20934;-73
2022/08/15 00:33:01;;;;;;;3.47;2.70;;;;;;;;;;5091004;28;20449;-72
2022/08/15 00:35:39;;;;;;;2.60;2.40;;;;;;;;;;5090887;28;21322;-73
2022/08/15 00:38:08;;;;;;;3.63;2.57;;;;;;;;;;5090813;28;20432;-73
2022/08/15 00:41:39;;;;;;;2.50;2.30;;;;;;;;;;5091384;28;20483;-73
2022/08/15 00:43:24;;;;;;;2.83;2.57;;;;;;;;;;5091148;28;20482;-73
2022/08/15 00:45:52;;;;;;;2.87;2.40;;;;;;;;;;5094499;28;20444;-72
2022/08/15 00:51:17;;;;;;;2.40;2.20;;;;;;;;;;5048933;28;20418;-72
2022/08/15 00:53:49;;;;;;;3.60;2.80;;;;;;;;;;5080783;28;20459;-72
2022/08/15 00:56:16;;;;;;;2.87;2.57;;;;;;;;;;5090330;28;20524;-73
2022/08/15 00:58:45;;;;;;;3.70;2.70;;;;;;;;;;5090142;28;20443;-72
2022/08/15 01:01:14;;;;;;;2.57;2.37;;;;;;;;;;5091274;28;20744;-72
2022/08/15 01:03:44;;;;;;;2.50;2.30;;;;;;;;;;5091269;28;20437;-72
2022/08/15 01:06:11;;;;;;;2.73;2.53;;;;;;;;;;5091580;28;20431;-73
2022/08/15 01:08:40;;;;;;;2.90;2.60;;;;;;;;;;5090764;28;20790;-73
2022/08/15 01:11:13;;;;;;;2.43;2.23;;;;;;;;;;5091214;28;20437;-73
2022/08/15 01:13:41;;;;;;;4.50;2.60;;;;;;;;;;5090865;28;20437;-73
2022/08/15 01:16:08;;;;;;;2.80;2.40;;;;;;;;;;5096231;28;20436;-72
2022/08/15 01:18:35;;;;;;;3.53;2.47;;;;;;;;;;5090716;28;20460;-73
2022/08/15 01:21:18;;;;;;;2.87;2.67;;;;;;;;;;5090628;28;20540;-73
2022/08/15 01:23:49;;;;;;;3.70;2.67;;;;;;;;;;5090598;28;20436;-73
2022/08/15 01:26:20;;;;;;;2.77;2.30;;;;;;;;;;5090977;28;20798;-73
2022/08/15 01:28:47;;;;;;;2.47;2.27;;;;;;;;;;5090372;28;20444;-73
2022/08/15 01:31:15;;;;;;;2.83;2.63;;;;;;;;;;5090938;28;20437;-72
2022/08/15 01:33:45;;;;;;;2.70;2.13;;;;;;;;;;5090218;28;20436;-72
2022/08/15 01:36:12;;;;;;;2.60;2.40;;;;;;;;;;5090802;28;20483;-72
2022/08/15 01:38:41;;;;;;;2.53;2.30;;;;;;;;;;5090631;28;20523;-72
2022/08/15 01:41:10;;;;;;;6.20;2.30;;;;;;;;;;5090707;28;20933;-72
2022/08/15 01:43:41;;;;;;;3.43;3.03;;;;;;;;;;5090759;28;20961;-73
2022/08/15 01:46:10;;;;;;;2.77;2.47;;;;;;;;;;5096952;28;20432;-72
2022/08/15 01:48:41;;;;;;;2.67;2.47;;;;;;;;;;5095714;28;20853;-73
2022/08/15 01:51:10;;;;;;;3.60;3.27;;;;;;;;;;5090826;28;20428;-73
2022/08/15 01:53:40;;;;;;;3.17;2.87;;;;;;;;;;5091140;28;20448;-73
2022/08/15 01:56:10;;;;;;;3.80;2.37;;;;;;;;;;5090908;28;20498;-72
2022/08/15 01:58:39;;;;;;;2.73;2.10;;;;;;;;;;5090061;28;20527;-73
2022/08/15 02:01:08;;;;;;;3.10;2.40;;;;;;;;;;5090658;28;20790;-73
2022/08/15 02:03:35;;;;;;;2.70;2.50;;;;;;;;;;5090231;28;20456;-73
2022/08/15 02:06:03;;;;;;;2.63;2.20;;;;;;;;;;5089765;28;20476;-72
2022/08/15 02:08:30;;;;;;;2.90;2.40;;;;;;;;;;5093507;28;20445;-73
2022/08/15 02:10:58;;;;;;;6.73;2.60;;;;;;;;;;5093956;28;20437;-73
2022/08/15 02:13:25;;;;;;;4.10;2.60;;;;;;;;;;5094253;28;20458;-72
2022/08/15 02:15:54;;;;;;;2.43;2.10;;;;;;;;;;5097674;28;20443;-72
2022/08/15 02:18:21;;;;;;;2.67;2.43;;;;;;;;;;5094375;28;20449;-73
2022/08/15 02:20:49;;;;;;;2.10;1.90;;;;;;;;;;5093407;28;20442;-73
2022/08/15 02:23:16;;;;;;;2.30;2.10;;;;;;;;;;5093793;28;20439;-73
2022/08/15 02:25:43;;;;;;;2.80;1.73;;;;;;;;;;5093512;28;20477;-72
2022/08/15 02:28:10;;;;;;;3.23;2.03;;;;;;;;;;5093755;28;20468;-72
2022/08/15 02:30:37;;;;;;;3.00;1.60;;;;;;;;;;5094206;28;20448;-73
2022/08/15 02:33:07;;;;;;;2.70;2.50;;;;;;;;;;5080015;28;20456;-74
2022/08/15 02:35:34;;;;;;;8.83;2.47;;;;;;;;;;5093364;28;20475;-74
2022/08/15 02:38:04;;;;;;;3.33;2.30;;;;;;;;;;5093020;28;20764;-72
2022/08/15 02:40:31;;;;;;;2.60;2.40;;;;;;;;;;5093542;28;20436;-73
2022/08/15 02:43:01;;;;;;;3.53;2.60;;;;;;;;;;5093248;28;20528;-73
2022/08/15 02:45:31;;;;;;;4.20;2.77;;;;;;;;;;5093996;28;20479;-72
2022/08/15 02:47:58;;;;;;;2.47;2.27;;;;;;;;;;5102690;28;20436;-73
2022/08/15 02:50:27;;;;;;;2.37;2.17;;;;;;;;;;5093399;28;20486;-73
2022/08/15 02:52:54;;;;;;;2.13;1.93;;;;;;;;;;5093072;28;20445;-73
2022/08/15 02:55:22;;;;;;;2.47;2.27;;;;;;;;;;5093494;28;20454;-73
2022/08/15 02:57:49;;;;;;;1.90;1.70;;;;;;;;;;5092361;28;20437;-72
2022/08/15 03:00:17;;;;;;;2.87;2.67;;;;;;;;;;5093432;28;20769;-73
2022/08/15 03:02:52;;;;;;;4.40;2.23;;;;;;;;;;5092643;28;20452;-72
2022/08/15 03:05:19;;;;;;;3.00;2.80;;;;;;;;;;5093153;28;20476;-73
2022/08/15 03:07:47;;;;;;;3.37;2.20;;;;;;;;;;5092399;28;20436;-72
2022/08/15 03:10:14;;;;;;;2.30;2.03;;;;;;;;;;5093175;28;20801;-72
2022/08/15 03:12:53;;;;;;;3.27;2.20;;;;;;;;;;5092773;28;20987;-70
2022/08/15 03:15:20;;;;;;;2.77;2.57;;;;;;;;;;5081540;28;20433;-73
2022/08/15 03:17:48;;;;;;;2.80;2.13;;;;;;;;;;5095717;28;20447;-72
2022/08/15 03:20:15;;;;;;;3.43;1.90;;;;;;;;;;5092576;28;20447;-73
2022/08/15 03:22:43;;;;;;;2.60;1.83;;;;;;;;;;5092536;28;20437;-70
2022/08/15 03:25:12;;;;;;;2.40;2.20;;;;;;;;;;5092819;28;21084;-72
2022/08/15 03:27:40;;;;;;;2.30;2.10;;;;;;;;;;5092509;28;20752;-72
2022/08/15 03:30:10;;;;;;;2.70;1.77;;;;;;;;;;5093167;28;20824;-72
2022/08/15 03:32:42;;;;;;;3.33;2.13;;;;;;;;;;5092883;28;20444;-73
2022/08/15 03:35:10;;;;;;;2.63;2.00;;;;;;;;;;5093047;28;20775;-72
2022/08/15 03:37:37;;;;;;;2.07;1.87;;;;;;;;;;5092472;28;20436;-73
2022/08/15 03:40:04;;;;;;;3.93;1.87;;;;;;;;;;5091965;28;20927;-73
2022/08/15 03:42:33;;;;;;;2.50;2.20;;;;;;;;;;5092008;28;20444;-73
2022/08/15 03:45:02;;;;;;;2.90;2.33;;;;;;;;;;5091709;28;20480;-73
2022/08/15 03:47:29;;;;;;;2.90;2.20;;;;;;;;;;5103052;28;20551;-72
2022/08/15 03:49:57;;;;;;;2.70;2.03;;;;;;;;;;5091898;28;20523;-72
2022/08/15 03:52:24;;;;;;;3.63;2.03;;;;;;;;;;5092124;28;20476;-72
2022/08/15 03:54:51;;;;;;;2.13;1.93;;;;;;;;;;5091908;28;20443;-73
2022/08/15 03:57:19;;;;;;;4.50;2.20;;;;;;;;;;5091414;28;20441;-72
2022/08/15 03:59:47;;;;;;;2.57;2.30;;;;;;;;;;5091563;28;20937;-73
2022/08/15 04:02:14;;;;;;;3.67;1.90;;;;;;;;;;5078606;28;20551;-73
2022/08/15 04:04:42;;;;;;;2.90;2.40;;;;;;;;;;5091653;28;20443;-70
2022/08/15 04:07:09;;;;;;;3.50;2.00;;;;;;;;;;5091784;28;20440;-72
2022/08/15 04:09:36;;;;;;;2.40;2.03;;;;;;;;;;5091825;28;20950;-72
2022/08/15 04:12:03;;;;;;;2.70;1.53;;;;;;;;;;5091291;28;20440;-72
2022/08/15 04:14:30;;;;;;;3.30;2.27;;;;;;;;;;5091888;28;20523;-72
2022/08/15 04:17:00;;;;;;;3.30;2.10;;;;;;;;;;5091179;28;20448;-73
2022/08/15 04:19:27;;;;;;;3.20;1.90;;;;;;;;;;5091855;28;20771;-73
2022/08/15 04:21:54;;;;;;;4.30;2.17;;;;;;;;;;5091388;28;20433;-73
2022/08/15 04:24:21;;;;;;;1.80;1.53;;;;;;;;;;5091905;28;20463;-72
2022/08/15 04:26:49;;;;;;;2.27;1.70;;;;;;;;;;5090542;28;20472;-72
2022/08/15 04:29:16;;;;;;;2.90;1.70;;;;;;;;;;5091462;28;20448;-72
2022/08/15 04:31:43;;;;;;;2.33;2.13;;;;;;;;;;5091125;28;20456;-72
2022/08/15 04:34:12;;;;;;;2.00;1.77;;;;;;;;;;5091857;28;20488;-72
2022/08/15 04:36:39;;;;;;;2.23;2.00;;;;;;;;;;5091050;28;20471;-72
2022/08/15 04:39:06;;;;;;;3.43;1.77;;;;;;;;;;5090909;28;20437;-73
2022/08/15 04:41:33;;;;;;;3.27;1.73;;;;;;;;;;5091148;28;20441;-72
2022/08/15 04:44:00;;;;;;;3.20;1.70;;;;;;;;;;5090982;28;20441;-73
2022/08/15 04:46:27;;;;;;;2.20;2.00;;;;;;;;;;5099302;28;20471;-73
2022/08/15 04:48:54;;;;;;;2.10;1.83;;;;;;;;;;5093282;28;20798;-73
2022/08/15 04:51:24;;;;;;;2.03;1.60;;;;;;;;;;5091263;28;21015;-72
2022/08/15 04:53:51;;;;;;;1.73;1.63;;;;;;;;;;5090841;28;20462;-73
2022/08/15 04:56:18;;;;;;;2.60;1.73;;;;;;;;;;5090839;28;20444;-72
2022/08/15 04:58:46;;;;;;;1.67;1.50;;;;;;;;;;5090236;28;20441;-72
2022/08/15 05:01:14;;;;;;;1.83;1.73;;;;;;;;;;5091423;28;20484;-72
2022/08/15 05:03:41;;;;;;;2.73;2.20;;;;;;;;;;5090948;28;20452;-72
2022/08/15 05:06:09;;;;;;;2.63;1.93;;;;;;;;;;5091142;28;20472;-72
2022/08/15 05:08:39;;;;;;;2.20;1.97;;;;;;;;;;5090949;28;20911;-73
2022/08/15 05:11:08;;;;;;;2.30;2.10;;;;;;;;;;5090679;28;20441;-73
2022/08/15 05:13:36;;;;;;;2.10;1.90;;;;;;;;;;5091032;28;20441;-72
2022/08/15 05:16:07;;;;;;;3.77;2.03;;;;;;;;;;5095192;28;20439;-72
2022/08/15 05:18:35;;;;;;;1.93;1.60;;;;;;;;;;5091165;28;20441;-73
2022/08/15 05:21:03;;;;;;;1.53;1.30;;;;;;;;;;5090166;28;20449;-72
2022/08/15 05:23:30;;;;;;;2.07;1.60;;;;;;;;;;5090841;28;20443;-72
2022/08/15 05:26:00;;;;;;;1.40;1.30;;;;;;;;;;5090001;28;20483;-72
2022/08/15 05:28:27;;;;;;;2.70;1.90;;;;;;;;;;5090836;28;20448;-73
2022/08/15 05:30:55;;;;;;;2.00;1.80;;;;;;;;;;5090393;28;20931;-72
2022/08/15 05:33:25;;;;;;;2.20;1.27;;;;;;;;;;5091274;28;20903;-73
2022/08/15 05:35:54;;;;;;;3.93;1.40;;;;;;;;;;5090327;28;20469;-73
2022/08/15 05:38:22;;;;;;;5.93;2.00;;;;;;;;;;5090368;28;20935;-72
2022/08/15 05:40:53;;;;;;;5.33;1.60;;;;;;;;;;5090329;28;20437;-73
2022/08/15 05:43:27;;;;;;;2.13;1.47;;;;;;;;;;5094338;28;20494;-72
2022/08/15 05:45:59;;;;;;;1.27;1.17;;;;;;;;;;5098140;28;20879;-72
2022/08/15 05:48:31;;;;;;;2.03;1.70;;;;;;;;;;5101146;28;20449;-72
2022/08/15 05:51:02;;;;;;;1.87;1.60;;;;;;;;;;5094337;28;20437;-72
2022/08/15 05:53:31;;;;;;;1.60;1.40;;;;;;;;;;5094704;28;20444;-72
2022/08/15 05:56:03;;;;;;;2.70;1.67;;;;;;;;;;5093456;28;20535;-72
2022/08/15 05:58:41;;;;;;;1.83;1.60;;;;;;;;;;5094470;28;20440;-73
2022/08/15 06:01:12;;;;;;;3.33;1.67;;;;;;;;;;5094848;28;20449;-73
2022/08/15 06:03:42;;;;;;;1.60;1.30;;;;;;;;;;5094293;28;20460;-72
2022/08/15 06:06:11;;;;;;;1.40;1.17;;;;;;;;;;5094206;28;20871;-72
2022/08/15 06:08:42;;;;;;;1.70;1.40;;;;;;;;;;5094524;28;20447;-73
2022/08/15 06:11:12;;;;;;;2.13;1.60;;;;;;;;;;5094544;28;20523;-72
2022/08/15 06:13:44;;;;;;;2.90;2.20;;;;;;;;;;5094018;28;20862;-72
2022/08/15 06:16:16;;;;;;;1.60;1.40;;;;;;;;;;5093922;28;20445;-72
2022/08/15 06:18:44;;;;;;;1.60;1.40;;;;;;;;;;5093581;28;20432;-72
2022/08/15 06:21:15;;;;;;;1.70;1.60;;;;;;;;;;5094322;28;20436;-72
2022/08/15 06:23:47;;;;;;;1.47;1.37;;;;;;;;;;5093859;28;20464;-70
2022/08/15 06:26:31;;;;;;;1.80;1.60;;;;;;;;;;5093709;28;20472;-72
2022/08/15 06:29:11;;;;;;;1.60;1.50;;;;;;;;;;5093580;28;20443;-72
2022/08/15 06:31:39;;;;;;;1.77;1.67;;;;;;;;;;5094272;28;20436;-72
2022/08/15 06:34:10;;;;;;;1.53;1.43;;;;;;;;;;5093054;28;20439;-73
2022/08/15 06:36:41;;;;;;;3.00;1.70;;;;;;;;;;5093430;28;20487;-72
2022/08/15 06:39:12;;;;;;;2.40;1.70;;;;;;;;;;5093957;28;20444;-72
2022/08/15 06:41:42;;;;;;;2.23;1.70;;;;;;;;;;5093694;28;20443;-72
2022/08/15 06:44:11;;;;;;;1.40;1.17;;;;;;;;;;5093775;28;20445;-71
2022/08/15 06:46:40;;;;;;;1.47;1.33;;;;;;;;;;5103566;28;20502;-73
2022/08/15 06:49:10;;;;;;;1.70;1.60;;;;;;;;;;5094582;28;20468;-73
2022/08/15 06:51:39;;;;;;;2.20;1.63;;;;;;;;;;5093680;28;20444;-73
2022/08/15 06:54:08;;;;;;;1.50;1.40;;;;;;;;;;5092673;28;20479;-73
2022/08/15 06:56:38;;;;;;;2.57;1.30;;;;;;;;;;5092801;28;20447;-72
2022/08/15 06:59:10;;;;;;;2.80;1.80;;;;;;;;;;5093130;28;20441;-73
2022/08/15 07:01:45;;;;;;;1.80;1.50;;;;;;;;;;5093584;28;20441;-72
2022/08/15 07:04:17;;;;;;;1.53;1.40;;;;;;;;;;5093479;28;20463;-71
2022/08/15 07:06:45;;;;;;;5.00;1.53;;;;;;;;;;5092460;28;20472;-72
2022/08/15 07:09:21;;;;;;;2.17;1.63;;;;;;;;;;5093157;28;20480;-72
2022/08/15 07:11:51;;;;;;;3.23;1.60;;;;;;;;;;5092596;28;20443;-72
2022/08/15 07:14:23;;;;;;;1.57;1.47;;;;;;;;;;5093529;28;20441;-72
2022/08/15 07:16:57;;;;;;;1.60;1.50;;;;;;;;;;5096465;28;20789;-72
2022/08/15 07:19:26;;;;;;;2.23;1.60;;;;;;;;;;5092804;28;20908;-73
2022/08/15 07:21:53;;;;;;;2.57;1.70;;;;;;;;;;5092651;28;20441;-73
2022/08/15 07:24:27;;;;;;;1.97;1.57;;;;;;;;;;5093057;28;20443;-72
2022/08/15 07:26:56;;;;;;;1.40;1.27;;;;;;;;;;5091941;28;20486;-72
2022/08/15 07:29:28;;;;;;;2.30;1.33;;;;;;;;;;5092764;28;20448;-72
2022/08/15 07:32:01;;;;;;;2.53;1.63;;;;;;;;;;5092385;28;20437;-74
2022/08/15 07:34:30;;;;;;;1.50;1.40;;;;;;;;;;5092496;28;20761;-72
2022/08/15 07:36:59;;;;;;;1.33;1.20;;;;;;;;;;5091987;28;20468;-73
2022/08/15 07:39:27;;;;;;;2.13;1.67;;;;;;;;;;5092684;28;20524;-73
2022/08/15 07:41:55;;;;;;;1.80;1.50;;;;;;;;;;5091844;28;20464;-72
2022/08/15 07:44:24;;;;;;;1.53;1.23;;;;;;;;;;5092509;28;20448;-73
2022/08/15 07:46:52;;;;;;;2.20;1.80;;;;;;;;;;5103108;28;20475;-72
2022/08/15 07:49:24;;;;;;;2.60;1.33;;;;;;;;;;5092583;28;20442;-73
2022/08/15 07:51:59;;;;;;;2.00;1.87;;;;;;;;;;5091888;28;20441;-72
2022/08/15 07:54:28;;;;;;;1.53;1.00;;;;;;;;;;5092375;28;20443;-73
2022/08/15 07:56:58;;;;;;;2.00;1.53;;;;;;;;;;5091221;28;20453;-72
2022/08/15 07:59:26;;;;;;;1.77;1.43;;;;;;;;;;5092146;28;20935;-73
2022/08/15 08:01:55;;;;;;;1.53;1.37;;;;;;;;;;5091366;28;20883;-73
2022/08/15 08:04:26;;;;;;;2.83;1.63;;;;;;;;;;5091664;28;20448;-72
2022/08/15 08:06:55;;;;;;;2.07;1.40;;;;;;;;;;5091154;28;20814;-73
2022/08/15 08:09:26;;;;;;;1.73;1.43;;;;;;;;;;5092280;28;20440;-73
2022/08/15 08:11:54;;;;;;;1.20;1.10;;;;;;;;;;5091390;28;20469;-73
2022/08/15 08:14:29;;;;;;;1.80;1.23;;;;;;;;;;5091694;28;20469;-72
2022/08/15 08:16:58;;;;;;;1.30;1.10;;;;;;;;;;5096360;28;20439;-73
2022/08/15 08:19:34;;;;;;;2.13;1.20;;;;;;;;;;5088737;28;20474;-73
2022/08/15 08:22:07;;;;;;;1.90;1.23;;;;;;;;;;5090536;28;20517;-72
2022/08/15 08:24:40;;;;;;;2.13;1.20;;;;;;;;;;5094306;28;20447;-72
2022/08/15 08:27:14;;;;;;;2.77;1.20;;;;;;;;;;5090670;28;20480;-73
2022/08/15 08:29:46;;;;;;;1.20;1.10;;;;;;;;;;5090537;28;20439;-72
2022/08/15 08:32:18;;;;;;;1.27;1.17;;;;;;;;;;5090523;28;20454;-72
2022/08/15 08:34:53;;;;;;;1.77;1.27;;;;;;;;;;5077508;28;20444;-73
2022/08/15 08:37:29;;;;;;;1.50;1.40;;;;;;;;;;5087667;28;20513;-72
2022/08/15 08:41:24;;;;;;;1.03;0.93;;;;;;;;;;5090485;28;20432;-73
2022/08/15 08:42:50;;;;;;;1.33;0.90;;;;;;;;;;5086630;28;20948;-73
2022/08/15 08:45:21;;;;;;;1.20;1.10;;;;;;;;;;5090700;28;20528;-74
2022/08/15 08:48:05;;;;;;;2.57;1.40;;;;;;;;;;5089660;28;20482;-74
2022/08/15 08:50:38;;;;;;;1.90;1.27;;;;;;;;;;5090793;28;20441;-73
2022/08/15 08:53:11;;;;;;;2.73;1.20;;;;;;;;;;5090740;28;20452;-73
2022/08/15 08:55:47;;;;;;;1.00;0.90;;;;;;;;;;5090443;28;20440;-72
2022/08/15 08:58:17;;;;;;;1.70;1.30;;;;;;;;;;5091005;28;20453;-73
2022/08/15 09:00:45;;;;;;;1.43;1.33;;;;;;;;;;5090121;28;20447;-74
2022/08/15 09:03:14;;;;;;;1.20;1.10;;;;;;;;;;5090492;28;20445;-73
2022/08/15 09:05:44;;;;;;;1.13;1.03;;;;;;;;;;5090222;28;20437;-70
2022/08/15 09:08:14;;;;;;;1.20;1.07;;;;;;;;;;5090458;28;20567;-73
2022/08/15 09:10:43;;;;;;;1.10;0.97;;;;;;;;;;5089920;28;20801;-70
2022/08/15 09:15:59;;;;;;;1.40;1.10;;;;;;;;;;5093927;28;20422;-73
2022/08/15 09:18:28;;;;;;;1.20;1.10;;;;;;;;;;5077182;28;20449;-74
2022/08/15 09:20:58;;;;;;;1.37;1.27;;;;;;;;;;5089789;28;20920;-73
2022/08/15 09:23:25;;;;;;;1.77;1.63;;;;;;;;;;5090439;28;20433;-73
2022/08/15 09:25:57;;;;;;;1.50;1.30;;;;;;;;;;5089406;28;21031;-73
2022/08/15 09:28:27;;;;;;;1.17;1.07;;;;;;;;;;5089919;28;20480;-73
2022/08/15 09:30:55;;;;;;;1.20;1.10;;;;;;;;;;5089751;28;20931;-73
2022/08/15 09:33:42;;;;;;;1.63;1.13;;;;;;;;;;5092563;28;20877;-73
2022/08/15 09:36:22;;;;;;;1.20;1.10;;;;;;;;;;5089733;28;20543;-73
2022/08/15 09:38:53;;;;;;;1.27;1.10;;;;;;;;;;5089846;28;20441;-73
2022/08/15 09:41:28;;;;;;;6.60;1.30;;;;;;;;;;5090268;28;20460;-72
2022/08/15 09:44:10;;;;;;;1.60;0.97;;;;;;;;;;5089406;28;20938;-73
2022/08/15 09:46:45;;;;;;;1.40;1.30;;;;;;;;;;5100052;28;20927;-74
2022/08/15 09:49:18;;;;;;;1.80;1.50;;;;;;;;;;5088755;28;20512;-72
2022/08/15 09:51:58;;;;;;;1.10;1.00;;;;;;;;;;5090727;28;20842;-73
2022/08/15 09:54:26;;;;;;;2.30;1.30;;;;;;;;;;5090624;28;20444;-72
2022/08/15 09:57:17;;;;;;;1.10;0.90;;;;;;;;;;5089684;28;20844;-74
2022/08/15 09:59:44;;;;;;;1.60;1.50;;;;;;;;;;5090745;28;21015;-72
2022/08/15 10:02:20;;;;;;;1.23;1.10;;;;;;;;;;5091075;28;20448;-73
2022/08/15 10:05:02;;;;;;;1.53;1.37;;;;;;;;;;5089975;28;20455;-73
2022/08/15 10:07:47;;;;;;;1.30;1.20;;;;;;;;;;5090032;28;20473;-73
2022/08/15 10:10:19;;;;;;;1.40;1.30;;;;;;;;;;5090695;28;20433;-73
2022/08/15 10:13:05;;;;;;;1.60;1.50;;;;;;;;;;5090093;28;20440;-73
2022/08/15 10:15:41;;;;;;;1.80;1.70;;;;;;;;;;5080180;28;20826;-73
2022/08/15 10:18:09;;;;;;;2.77;1.33;;;;;;;;;;5093463;28;20505;-73
2022/08/15 10:20:50;;;;;;;1.40;1.13;;;;;;;;;;5090568;28;20523;-73
2022/08/15 10:23:17;;;;;;;1.27;1.17;;;;;;;;;;5090544;28;20436;-73
2022/08/15 10:25:48;;;;;;;3.20;1.70;;;;;;;;;;5089588;28;20436;-73
2022/08/15 10:28:22;;;;;;;1.50;1.40;;;;;;;;;;5091466;28;20469;-73
2022/08/15 10:31:14;;;;;;;1.53;1.43;;;;;;;;;;5093040;28;20447;-73
2022/08/15 10:33:47;;;;;;;2.77;1.43;;;;;;;;;;5094084;28;20436;-73
2022/08/15 10:36:19;;;;;;;2.40;1.33;;;;;;;;;;5079636;28;20962;-73
2022/08/15 10:38:49;;;;;;;1.70;1.53;;;;;;;;;;5093509;28;20459;-74
2022/08/15 10:41:21;;;;;;;1.43;1.23;;;;;;;;;;5094054;28;20444;-74
2022/08/15 10:43:55;;;;;;;1.40;1.30;;;;;;;;;;5093170;28;20433;-74
2022/08/15 10:46:25;;;;;;;1.50;1.40;;;;;;;;;;5101195;28;20530;-73
2022/08/15 10:48:58;;;;;;;1.30;1.20;;;;;;;;;;5096213;28;20481;-73
2022/08/15 10:51:35;;;;;;;2.40;1.80;;;;;;;;;;5093501;28;20486;-74
2022/08/15 10:54:10;;;;;;;2.03;1.70;;;;;;;;;;5092783;28;20666;-74
2022/08/15 10:56:39;;;;;;;1.60;1.50;;;;;;;;;;5093391;28;20774;-73
2022/08/15 10:59:08;;;;;;;1.70;1.60;;;;;;;;;;5092643;28;20787;-73
2022/08/15 11:01:35;;;;;;;1.47;1.37;;;;;;;;;;5093014;28;20437;-73
2022/08/15 11:04:05;;;;;;;1.50;1.40;;;;;;;;;;5092879;28;20444;-74
2022/08/15 11:06:34;;;;;;;1.30;1.20;;;;;;;;;;5092617;28;20444;-74
2022/08/15 11:09:06;;;;;;;1.40;1.27;;;;;;;;;;5092414;28;20604;-74
2022/08/15 11:11:37;;;;;;;1.60;1.50;;;;;;;;;;5093289;28;20433;-75
2022/08/15 11:14:11;;;;;;;1.73;1.53;;;;;;;;;;5092647;28;20436;-74
2022/08/15 11:16:41;;;;;;;1.23;1.13;;;;;;;;;;5098231;28;20780;-74
2022/08/15 11:19:18;;;;;;;1.80;1.70;;;;;;;;;;5093089;28;20441;-74
2022/08/15 11:21:50;;;;;;;1.37;1.27;;;;;;;;;;5078945;28;20912;-72
2022/08/15 11:24:25;;;;;;;1.90;1.50;;;;;;;;;;5093027;28;20441;-74
2022/08/15 11:27:08;;;;;;;1.43;1.30;;;;;;;;;;5092167;28;20789;-74
2022/08/15 11:29:36;;;;;;;1.27;1.17;;;;;;;;;;5092630;28;20831;-76
2022/08/15 11:32:04;;;;;;;1.57;1.30;;;;;;;;;;5092344;28;20436;-74
2022/08/15 11:34:35;;;;;;;1.40;1.10;;;;;;;;;;5092687;28;20494;-74
2022/08/15 11:37:05;;;;;;;1.67;1.57;;;;;;;;;;5091916;28;20464;-74
2022/08/15 11:39:33;;;;;;;1.73;1.63;;;;;;;;;;5078717;28;20440;-73
2022/08/15 11:42:03;;;;;;;1.50;1.30;;;;;;;;;;5091849;28;20447;-74
2022/08/15 11:44:35;;;;;;;1.57;1.47;;;;;;;;;;5092718;28;20833;-74
2022/08/15 11:47:05;;;;;;;1.80;1.70;;;;;;;;;;5103138;28;20552;-73
2022/08/15 11:49:33;;;;;;;1.73;1.63;;;;;;;;;;5092595;28;20444;-73
2022/08/15 11:52:06;;;;;;;1.50;1.20;;;;;;;;;;5091822;28;20871;-74
2022/08/15 11:54:33;;;;;;;1.70;1.60;;;;;;;;;;5092667;28;20444;-73
2022/08/15 11:57:02;;;;;;;1.40;1.30;;;;;;;;;;5091269;28;20441;-73
2022/08/15 11:59:30;;;;;;;1.60;1.47;;;;;;;;;;5092166;28;20464;-74
2022/08/15 12:02:02;;;;;;;1.90;1.60;;;;;;;;;;5091509;28;20540;-73
2022/08/15 12:04:33;;;;;;;1.30;1.20;;;;;;;;;;5092021;28;20448;-73
2022/08/15 12:07:05;;;;;;;3.97;2.00;;;;;;;;;;5091204;28;20429;-74
2022/08/15 12:09:32;;;;;;;1.60;1.50;;;;;;;;;;5092272;28;20459;-73
2022/08/15 12:11:59;;;;;;;2.00;1.40;;;;;;;;;;5091541;28;20441;-73
2022/08/15 12:14:27;;;;;;;1.63;1.53;;;;;;;;;;5091909;28;20436;-73
2022/08/15 12:16:56;;;;;;;1.90;1.80;;;;;;;;;;5091007;28;20441;-73
2022/08/15 12:19:29;;;;;;;1.53;1.40;;;;;;;;;;5092009;28;20444;-72
2022/08/15 12:21:58;;;;;;;1.80;1.70;;;;;;;;;;5091481;28;20436;-73
2022/08/15 12:24:26;;;;;;;2.13;1.77;;;;;;;;;;5089690;28;20448;-73
2022/08/15 12:26:55;;;;;;;1.90;1.70;;;;;;;;;;5089965;28;20467;-72
2022/08/15 12:29:24;;;;;;;2.13;1.93;;;;;;;;;;5090516;28;20491;-73
2022/08/15 12:31:52;;;;;;;2.20;2.00;;;;;;;;;;5090676;28;20444;-73
2022/08/15 12:34:21;;;;;;;2.13;1.80;;;;;;;;;;5090252;28;20456;-73
2022/08/15 12:36:49;;;;;;;1.90;1.73;;;;;;;;;;5084692;28;20477;-72
2022/08/15 12:39:18;;;;;;;1.50;1.40;;;;;;;;;;5089114;28;20531;-73
2022/08/15 12:41:46;;;;;;;1.67;1.57;;;;;;;;;;5088393;28;20451;-72
2022/08/15 12:44:18;;;;;;;3.33;2.73;;;;;;;;;;5089241;28;20195;-73
2022/08/15 12:46:45;;;;;;;1.90;1.80;;;;;;;;;;5089234;28;20531;-73
2022/08/15 12:49:12;;;;;;;1.93;1.60;;;;;;;;;;5085249;28;20210;-72
2022/08/15 12:51:39;;;;;;;2.20;1.67;;;;;;;;;;5090472;28;20712;-73
2022/08/15 12:54:07;;;;;;;1.90;1.80;;;;;;;;;;5090725;28;20198;-73
2022/08/15 12:56:35;;;;;;;1.50;1.40;;;;;;;;;;5090936;28;20204;-73
2022/08/15 12:59:05;;;;;;;2.20;1.87;;;;;;;;;;5090254;28;20493;-73
2022/08/15 13:01:33;;;;;;;3.23;1.40;;;;;;;;;;5090363;28;20491;-72
2022/08/15 13:04:05;;;;;;;1.50;1.40;;;;;;;;;;5090537;28;20447;-73
2022/08/15 13:06:36;;;;;;;1.60;1.50;;;;;;;;;;5089893;28;20517;-73
2022/08/15 13:09:04;;;;;;;2.03;1.70;;;;;;;;;;5090169;28;20476;-74
2022/08/15 13:11:32;;;;;;;2.73;1.57;;;;;;;;;;5090099;28;20440;-73
2022/08/15 13:14:00;;;;;;;1.77;1.60;;;;;;;;;;5099513;28;20979;-73
2022/08/15 13:16:27;;;;;;;1.83;1.67;;;;;;;;;;5097484;28;20448;-73
2022/08/15 13:18:55;;;;;;;1.97;1.77;;;;;;;;;;5089795;28;20452;-73
2022/08/15 13:24:07;;;;;;;1.93;1.50;;;;;;;;;;5089578;28;20428;-73
2022/08/15 13:26:34;;;;;;;1.80;1.63;;;;;;;;;;5089990;28;20808;-73
2022/08/15 13:29:03;;;;;;;2.37;1.60;;;;;;;;;;5089689;28;20828;-73
2022/08/15 13:31:30;;;;;;;1.80;1.53;;;;;;;;;;5090604;28;20448;-73
2022/08/15 13:33:58;;;;;;;2.17;1.97;;;;;;;;;;5090103;28;20436;-73
2022/08/15 13:36:28;;;;;;;2.77;2.40;;;;;;;;;;5089772;28;20468;-74
2022/08/15 13:38:58;;;;;;;1.80;1.70;;;;;;;;;;5089903;28;20444;-74
2022/08/15 13:41:25;;;;;;;2.20;1.63;;;;;;;;;;5090222;28;20515;-73
2022/08/15 13:43:52;;;;;;;3.17;1.80;;;;;;;;;;5089250;28;20451;-73
2022/08/15 13:46:25;;;;;;;2.00;1.80;;;;;;;;;;5097168;28;20442;-73
2022/08/15 13:48:52;;;;;;;1.63;1.53;;;;;;;;;;5105336;28;20479;-73
2022/08/15 13:51:25;;;;;;;1.70;1.60;;;;;;;;;;5089974;28;20946;-72
2022/08/15 13:53:53;;;;;;;3.63;2.07;;;;;;;;;;5089531;28;20437;-73
2022/08/15 13:56:21;;;;;;;2.23;1.73;;;;;;;;;;5089605;28;20440;-73
2022/08/15 13:58:48;;;;;;;2.30;1.80;;;;;;;;;;5089241;28;20440;-71
2022/08/15 14:01:17;;;;;;;1.97;1.80;;;;;;;;;;5090005;28;20436;-72
2022/08/15 14:03:46;;;;;;;2.07;1.80;;;;;;;;;;5091505;28;20439;-72
2022/08/15 14:06:13;;;;;;;2.23;2.00;;;;;;;;;;5093528;28;20440;-72
2022/08/15 14:08:45;;;;;;;1.97;1.70;;;;;;;;;;5092202;28;20475;-72
2022/08/15 14:11:12;;;;;;;2.07;1.70;;;;;;;;;;5093522;28;20429;-72
2022/08/15 14:13:39;;;;;;;2.00;1.90;;;;;;;;;;5093932;28;20454;-72
2022/08/15 14:16:08;;;;;;;1.93;1.83;;;;;;;;;;5096655;28;20757;-73
2022/08/15 14:18:35;;;;;;;2.07;1.87;;;;;;;;;;5093700;28;20534;-73
2022/08/15 14:21:05;;;;;;;1.80;1.70;;;;;;;;;;5093694;28;20444;-73
2022/08/15 14:23:33;;;;;;;1.70;1.60;;;;;;;;;;5093272;28;20445;-72
2022/08/15 14:26:00;;;;;;;1.50;1.40;;;;;;;;;;5092743;28;20973;-73
2022/08/15 14:28:27;;;;;;;2.03;1.50;;;;;;;;;;5093299;28;20790;-73
2022/08/15 14:30:54;;;;;;;2.07;1.80;;;;;;;;;;5093111;28;20440;-72
2022/08/15 14:33:22;;;;;;;2.40;1.53;;;;;;;;;;5093261;28;20445;-72
2022/08/15 14:35:49;;;;;;;1.97;1.77;;;;;;;;;;5092551;28;20464;-72
2022/08/15 14:38:19;;;;;;;2.10;1.70;;;;;;;;;;5093729;28;20880;-72
2022/08/15 14:40:46;;;;;;;2.57;1.97;;;;;;;;;;5093028;28;20437;-72
2022/08/15 14:43:14;;;;;;;2.23;2.03;;;23.50;1.00;;;;;;5093117;28;20452;-72
2022/08/15 14:45:43;;;;;;;3.77;2.57;;;;;;;;;;5094885;28;20557;-73
2022/08/15 14:48:11;;;;;;;2.43;1.80;;;;;;;;;;5101431;28;20842;-73
2022/08/15 14:50:39;;;;;;;4.80;1.97;;;;;;;;;;5092955;28;20441;-73
2022/08/15 14:53:07;;;;;;;2.77;1.80;;;;;;;;;;5092852;28;20540;-73
2022/08/15 14:55:36;;;;;;;1.93;1.77;;;;;;;;;;5097964;28;20435;-73
2022/08/15 14:58:06;;;;;;;4.40;1.87;;;;;;;;;;5099555;28;20437;-72
2022/08/15 15:00:34;;;;;;;2.27;1.80;;;;;;;;;;5079358;28;20477;-72
2022/08/15 15:03:02;;;;;;;2.30;1.70;;;;;;;;;;5092069;28;20444;-73
2022/08/15 15:05:29;;;;;;;1.77;1.60;;;;;;;;;;5092133;28;20444;-72
2022/08/15 15:07:57;;;;;;;2.73;1.97;;;;;;;;;;5092220;28;20448;-72